Pocao de Pedras, Brazil
Current Conditions -  °F | °C
As of 8:00 PM on Thursday 18 Dec 2014 (Local Time) from SBTE Reporting Station
Broken Clouds Broken Clouds  
Wind Chill: 82°   Ceiling: 7000
Heat Index: 86°   Visibility: 6mi
Dew Point: 70°   Wind: 14mph
Humidity: 66%   Direction: 90°E
Pressure: 29.83"   Gusts: NA
Location:  4.75°S, 44.93°W
Report Text: SBTE 182300Z 09012KT 9999 SCT030TCU BKN070 28/21 Q1010
Loading
Personal Weather Stations






























Interactive Weather Map New forecast layout! Learn more

10-Day Weather Forecast

Advertisements
Track Severe Weather on mobile